createdAt,value
2023-01-17T00:00:20.180Z,93.91
2023-01-17T00:01:20.135Z,93.40
2023-01-17T00:02:20.234Z,93.91
2023-01-17T00:03:20.106Z,93.81
2023-01-17T00:04:20.134Z,93.60
2023-01-17T00:05:20.086Z,94.12
2023-01-17T00:06:20.138Z,94.85
2023-01-17T00:07:20.066Z,94.33
2023-01-17T00:08:20.049Z,94.02
2023-01-17T00:09:26.561Z,93.19
2023-01-17T00:10:20.033Z,93.60
2023-01-17T00:11:20.005Z,93.81
2023-01-17T00:12:20.041Z,94.33
2023-01-17T00:13:19.996Z,93.81
2023-01-17T00:14:19.978Z,93.81
2023-01-17T00:15:20.076Z,94.23
2023-01-17T00:16:20.076Z,95.06
2023-01-17T00:17:19.938Z,95.06
2023-01-17T00:18:19.965Z,95.26
2023-01-17T00:19:19.918Z,96.20
2023-01-17T00:20:20.322Z,95.37
2023-01-17T00:21:19.929Z,96.20
2023-01-17T00:22:19.902Z,96.34
2023-01-17T00:23:19.890Z,97.07
2023-01-17T00:24:19.912Z,97.49
2023-01-17T00:25:19.873Z,98.32
2023-01-17T00:26:19.880Z,98.78
2023-01-17T00:27:19.860Z,98.68
2023-01-17T00:28:19.847Z,98.88
2023-01-17T00:29:26.445Z,99.30
2023-01-17T00:30:19.823Z,99.61
2023-01-17T00:31:19.820Z,99.71
2023-01-17T00:32:19.823Z,99.99
2023-01-17T00:33:19.773Z,99.40
2023-01-17T00:34:19.832Z,99.09
2023-01-17T00:35:19.773Z,99.09
2023-01-17T00:36:19.752Z,99.19
2023-01-17T00:37:19.817Z,99.40
2023-01-17T00:38:19.720Z,99.61
2023-01-17T00:39:19.730Z,99.51
2023-01-17T00:40:19.706Z,98.99
2023-01-17T00:41:19.678Z,98.99
2023-01-17T00:42:19.675Z,98.99
2023-01-17T00:43:19.709Z,98.99
2023-01-17T00:44:19.657Z,99.30
2023-01-17T00:45:19.640Z,99.09
2023-01-17T00:46:19.686Z,98.99
2023-01-17T00:47:19.623Z,99.30
2023-01-17T00:48:19.621Z,99.51
2023-01-17T00:49:26.139Z,99.40
2023-01-17T00:50:19.606Z,99.82
2023-01-17T00:51:19.594Z,99.51
2023-01-17T00:52:19.587Z,98.99
2023-01-17T00:53:19.553Z,98.99
2023-01-17T00:54:19.579Z,98.88
2023-01-17T00:55:19.594Z,98.78
2023-01-17T00:56:19.546Z,98.68
2023-01-17T00:57:19.538Z,98.57
2023-01-17T00:58:19.532Z,98.68
2023-01-17T00:59:19.490Z,98.57
2023-01-17T01:00:19.485Z,98.47
2023-01-17T01:01:19.659Z,98.36
2023-01-17T01:02:19.518Z,98.47
2023-01-17T01:03:19.455Z,98.78
2023-01-17T01:04:19.440Z,98.99
2023-01-17T01:05:19.446Z,98.78
2023-01-17T01:06:19.411Z,98.78
2023-01-17T01:07:19.419Z,98.26
2023-01-17T01:08:19.471Z,98.26
2023-01-17T01:09:25.917Z,98.16
2023-01-17T01:10:19.495Z,98.26
2023-01-17T01:11:19.358Z,98.26
2023-01-17T01:12:19.375Z,98.16
2023-01-17T01:13:19.324Z,97.85
2023-01-17T01:14:19.339Z,97.17
2023-01-17T01:15:19.331Z,97.07
2023-01-17T01:16:19.403Z,96.55
2023-01-17T01:17:19.279Z,96.55
2023-01-17T01:18:19.305Z,96.55
2023-01-17T01:19:19.283Z,96.66
2023-01-17T01:20:19.355Z,96.24
2023-01-17T01:21:19.345Z,95.93
2023-01-17T01:22:19.277Z,95.51
2023-01-17T01:23:19.266Z,95.72
2023-01-17T01:24:19.221Z,96.03
2023-01-17T01:25:19.226Z,95.93
2023-01-17T01:26:19.203Z,95.62
2023-01-17T01:27:19.175Z,94.89
2023-01-17T01:28:19.192Z,95.20
2023-01-17T01:29:19.180Z,95.20
2023-01-17T01:30:19.164Z,95.10
2023-01-17T01:31:19.208Z,95.20
2023-01-17T01:32:19.132Z,93.85
2023-01-17T01:33:19.143Z,93.85
2023-01-17T01:34:19.131Z,93.85
2023-01-17T01:35:19.110Z,94.37
2023-01-17T01:36:19.125Z,94.68
2023-01-17T01:37:19.087Z,95.10
2023-01-17T01:38:19.103Z,94.58
2023-01-17T01:39:19.118Z,94.48
2023-01-17T01:40:19.057Z,94.79
2023-01-17T01:41:19.042Z,94.89
2023-01-17T01:42:19.029Z,95.00
2023-01-17T01:43:19.032Z,94.27
2023-01-17T01:44:18.989Z,94.06
2023-01-17T01:45:19.021Z,94.27
2023-01-17T01:46:18.978Z,93.96
2023-01-17T01:47:18.975Z,94.58
2023-01-17T01:48:18.960Z,94.32
2023-01-17T01:49:18.954Z,93.70
2023-01-17T01:50:18.931Z,93.38
2023-01-17T01:51:18.949Z,93.02
2023-01-17T01:52:18.925Z,93.07
2023-01-17T01:53:18.921Z,92.45
2023-01-17T01:54:18.906Z,92.45
2023-01-17T01:55:18.897Z,92.66
2023-01-17T01:56:18.860Z,92.82
2023-01-17T01:57:18.868Z,92.66
2023-01-17T01:58:18.896Z,92.35
2023-01-17T01:59:18.832Z,93.18
2023-01-17T02:00:18.829Z,92.76
2023-01-17T02:01:18.948Z,92.76
2023-01-17T02:02:18.806Z,92.86
2023-01-17T02:03:18.793Z,93.07
2023-01-17T02:04:18.781Z,93.07
2023-01-17T02:05:18.788Z,92.66
2023-01-17T02:06:18.775Z,92.55
2023-01-17T02:07:18.768Z,93.28
2023-01-17T02:08:18.763Z,92.86
2023-01-17T02:09:25.315Z,93.18
2023-01-17T02:10:18.741Z,92.66
2023-01-17T02:11:18.698Z,92.30
2023-01-17T02:12:18.704Z,92.61
2023-01-17T02:13:18.700Z,92.20
2023-01-17T02:14:18.688Z,91.89
2023-01-17T02:15:18.653Z,91.78
2023-01-17T02:16:18.740Z,92.61
2023-01-17T02:17:18.643Z,92.66
2023-01-17T02:18:18.630Z,91.68
2023-01-17T02:19:18.614Z,91.99
2023-01-17T02:20:18.611Z,92.03
2023-01-17T02:21:18.611Z,92.55
2023-01-17T02:22:18.593Z,92.66
2023-01-17T02:23:18.580Z,93.38
2023-01-17T02:24:18.593Z,92.86
2023-01-17T02:25:18.579Z,92.76
2023-01-17T02:26:18.570Z,92.76
2023-01-17T02:27:18.542Z,92.45
2023-01-17T02:28:18.747Z,92.20
2023-01-17T02:29:18.512Z,91.93
2023-01-17T02:30:18.538Z,91.62
2023-01-17T02:31:18.507Z,91.93
2023-01-17T02:32:18.500Z,92.14
2023-01-17T02:33:18.474Z,92.45
2023-01-17T02:34:18.486Z,92.14
2023-01-17T02:35:18.468Z,92.14
2023-01-17T02:36:18.498Z,92.24
2023-01-17T02:37:18.461Z,92.03
2023-01-17T02:38:18.422Z,92.45
2023-01-17T02:39:24.943Z,91.83
2023-01-17T02:40:18.497Z,92.03
2023-01-17T02:41:18.389Z,92.35
2023-01-17T02:42:18.388Z,91.83
2023-01-17T02:43:18.382Z,91.41
2023-01-17T02:44:18.345Z,91.31
2023-01-17T02:45:18.349Z,91.41
2023-01-17T02:46:18.344Z,91.93
2023-01-17T02:47:18.304Z,92.03
2023-01-17T02:48:18.314Z,91.72
2023-01-17T02:49:18.288Z,91.83
2023-01-17T02:50:18.302Z,91.83
2023-01-17T02:51:18.291Z,91.83
2023-01-17T02:52:18.267Z,91.83
2023-01-17T02:53:18.239Z,91.31
2023-01-17T02:54:18.263Z,91.41
2023-01-17T02:55:18.239Z,92.35
2023-01-17T02:56:18.240Z,92.45
2023-01-17T02:57:18.224Z,92.76
2023-01-17T02:58:18.205Z,92.24
2023-01-17T02:59:24.702Z,91.93
2023-01-17T03:00:18.198Z,92.45
2023-01-17T03:01:18.322Z,92.66
2023-01-17T03:02:18.337Z,93.28
2023-01-17T03:03:18.161Z,93.22
2023-01-17T03:04:18.128Z,94.05
2023-01-17T03:05:20.279Z,94.67
2023-01-17T03:06:18.126Z,95.09
2023-01-17T03:07:18.089Z,95.29
2023-01-17T03:08:18.099Z,95.65
2023-01-17T03:09:18.091Z,95.86
2023-01-17T03:10:18.078Z,95.81
2023-01-17T03:50:26.073Z,87.92
2023-01-17T03:50:30.884Z,88.02
2023-01-17T03:51:30.889Z,88.23
2023-01-17T03:52:30.907Z,88.34
2023-01-17T03:53:30.842Z,87.82
2023-01-17T03:54:30.838Z,88.23
2023-01-17T03:55:30.848Z,88.54
2023-01-17T03:56:30.822Z,88.61
2023-01-17T03:57:30.800Z,88.23
2023-01-17T03:58:30.835Z,88.02
2023-01-17T03:59:30.795Z,87.40
2023-01-17T04:00:30.784Z,87.78
2023-01-17T04:01:30.939Z,87.88
2023-01-17T04:02:30.795Z,86.74
2023-01-17T04:03:30.761Z,87.26
2023-01-17T04:04:30.763Z,87.40
2023-01-17T04:05:30.723Z,87.51
2023-01-17T04:06:30.730Z,87.82
2023-01-17T04:07:30.714Z,88.23
2023-01-17T04:08:30.690Z,88.34
2023-01-17T04:09:37.197Z,88.23
2023-01-17T04:10:30.678Z,87.40
2023-01-17T04:11:30.656Z,87.26
2023-01-17T04:12:30.664Z,87.99
2023-01-17T04:13:30.650Z,88.51
2023-01-17T04:14:30.661Z,88.44
2023-01-17T04:15:30.659Z,88.02
2023-01-17T04:16:30.644Z,88.54
2023-01-17T04:17:30.590Z,87.82
2023-01-17T04:18:31.352Z,87.51
2023-01-17T04:19:30.567Z,87.19
2023-01-17T04:20:30.629Z,87.30
2023-01-17T04:21:30.557Z,86.88
2023-01-17T04:22:30.541Z,86.64
2023-01-17T04:23:30.545Z,87.16
2023-01-17T04:24:30.510Z,86.74
2023-01-17T04:25:30.511Z,86.54
2023-01-17T04:26:30.520Z,85.71
2023-01-17T04:27:30.489Z,86.33
2023-01-17T04:28:30.496Z,85.81
2023-01-17T04:29:37.005Z,86.36
2023-01-17T04:30:30.519Z,86.33
2023-01-17T04:31:30.534Z,86.16
2023-01-17T04:32:30.461Z,85.71
2023-01-17T04:33:30.409Z,84.67
2023-01-17T04:34:30.438Z,84.36
2023-01-17T04:35:30.455Z,84.67
2023-01-17T04:36:30.409Z,85.39
2023-01-17T04:37:30.388Z,85.43
2023-01-17T04:38:30.409Z,84.91
2023-01-17T04:39:30.373Z,85.02
2023-01-17T04:40:30.362Z,85.53
2023-01-17T04:41:30.344Z,86.16
2023-01-17T04:42:30.349Z,85.85
2023-01-17T04:43:30.325Z,85.95
2023-01-17T04:44:30.356Z,85.74
2023-01-17T04:45:30.336Z,86.47
2023-01-17T04:46:30.318Z,86.05
2023-01-17T04:47:30.303Z,85.85
2023-01-17T04:48:30.300Z,86.16
2023-01-17T04:49:36.791Z,86.36
2023-01-17T04:50:30.273Z,86.36
2023-01-17T04:51:30.300Z,86.05
2023-01-17T04:52:30.239Z,85.85
2023-01-17T04:53:30.219Z,85.22
2023-01-17T04:54:30.211Z,85.33
2023-01-17T04:55:30.178Z,85.85
2023-01-17T04:56:30.208Z,85.64
2023-01-17T04:57:30.201Z,85.43
2023-01-17T04:58:30.178Z,85.43
2023-01-17T04:59:30.143Z,85.64
2023-01-17T05:00:30.139Z,85.74
2023-01-17T05:01:30.240Z,85.95
2023-01-17T05:02:30.187Z,86.05
2023-01-17T05:03:30.118Z,85.57
2023-01-17T05:04:30.103Z,85.47
2023-01-17T05:05:30.089Z,86.09
2023-01-17T05:06:30.062Z,86.09
2023-01-17T05:07:30.061Z,86.19
2023-01-17T05:08:30.074Z,86.09
2023-01-17T05:09:30.027Z,86.51
2023-01-17T05:10:30.049Z,86.19
2023-01-17T05:11:30.037Z,86.19
2023-01-17T05:12:30.035Z,85.88
2023-01-17T05:13:30.000Z,85.68
2023-01-17T05:14:29.971Z,85.47
2023-01-17T05:15:29.993Z,85.78
2023-01-17T05:16:29.968Z,85.68
2023-01-17T05:17:29.971Z,86.13
2023-01-17T05:18:29.931Z,86.13
2023-01-17T05:19:36.438Z,85.61
2023-01-17T05:20:29.937Z,85.26
2023-01-17T05:21:29.885Z,85.05
2023-01-17T05:22:29.953Z,85.36
2023-01-17T05:23:29.890Z,85.57
2023-01-17T05:24:29.873Z,85.47
2023-01-17T05:25:29.863Z,85.36
2023-01-17T05:26:29.886Z,85.36
2023-01-17T05:27:29.844Z,84.53
2023-01-17T05:28:29.832Z,84.74
2023-01-17T05:29:29.829Z,84.84
2023-01-17T05:30:29.826Z,84.64
2023-01-17T05:31:29.821Z,84.33
2023-01-17T05:32:29.811Z,84.64
2023-01-17T05:33:29.801Z,84.01
2023-01-17T05:34:29.783Z,83.70
2023-01-17T05:35:29.806Z,83.60
2023-01-17T05:36:29.757Z,83.81
2023-01-17T05:37:29.719Z,83.81
2023-01-17T05:38:29.745Z,84.12
2023-01-17T05:39:36.800Z,83.60
2023-01-17T05:40:29.694Z,83.91
2023-01-17T05:41:29.668Z,83.53
2023-01-17T05:42:29.694Z,83.33
2023-01-17T05:43:29.652Z,83.33
2023-01-17T05:44:29.662Z,83.33
2023-01-17T05:45:29.669Z,83.43
2023-01-17T05:46:29.702Z,83.64
2023-01-17T05:47:29.625Z,83.95
2023-01-17T05:48:29.608Z,83.95
2023-01-17T05:49:29.589Z,84.58
2023-01-17T05:50:29.596Z,84.37
2023-01-17T05:51:29.570Z,84.27
2023-01-17T05:52:29.557Z,84.16
2023-01-17T05:53:29.611Z,84.16
2023-01-17T05:54:29.593Z,83.74
2023-01-17T05:55:29.566Z,83.84
2023-01-17T05:56:29.518Z,83.64
2023-01-17T05:57:29.518Z,83.64
2023-01-17T05:58:29.505Z,84.05
2023-01-17T05:59:37.620Z,84.05
2023-01-17T06:00:29.476Z,84.05
2023-01-17T06:01:29.481Z,84.27
2023-01-17T06:02:29.493Z,83.33
2023-01-17T06:03:29.467Z,83.22
2023-01-17T06:04:29.508Z,83.74
2023-01-17T06:05:29.448Z,83.74
2023-01-17T06:06:29.453Z,83.43
2023-01-17T06:07:29.394Z,83.74
2023-01-17T06:08:29.414Z,83.64
2023-01-17T06:09:29.388Z,83.53
2023-01-17T06:10:29.365Z,82.91
2023-01-17T06:11:29.347Z,83.53
2023-01-17T06:12:29.352Z,83.74
2023-01-17T06:13:29.332Z,83.84
2023-01-17T06:14:29.359Z,83.74
2023-01-17T06:15:29.327Z,83.18
2023-01-17T06:16:29.334Z,83.50
2023-01-17T06:17:29.307Z,83.08
2023-01-17T06:18:29.298Z,82.98
2023-01-17T06:19:35.812Z,83.60
2023-01-17T06:20:29.277Z,83.60
2023-01-17T06:21:29.250Z,83.60
2023-01-17T06:22:29.261Z,83.39
2023-01-17T06:23:29.235Z,83.18
2023-01-17T06:24:29.291Z,83.29
2023-01-17T06:25:29.197Z,83.39
2023-01-17T06:26:29.201Z,82.70
2023-01-17T06:27:29.216Z,83.33
2023-01-17T06:28:29.197Z,83.33
2023-01-17T06:29:29.160Z,83.74
2023-01-17T06:30:29.162Z,84.16
2023-01-17T06:31:29.190Z,83.22
2023-01-17T06:32:29.157Z,82.70
2023-01-17T06:33:29.150Z,82.35
2023-01-17T06:34:29.117Z,82.25
2023-01-17T06:35:29.094Z,82.98
2023-01-17T06:36:29.101Z,82.98
2023-01-17T06:37:29.074Z,82.70
2023-01-17T06:38:29.064Z,82.81
2023-01-17T06:39:29.057Z,83.84
2023-01-17T06:40:29.056Z,83.12
2023-01-17T06:41:29.040Z,82.91
2023-01-17T06:42:29.028Z,82.50
2023-01-17T06:43:29.009Z,82.39
2023-01-17T06:44:29.016Z,83.12
2023-01-17T06:45:28.998Z,82.60
2023-01-17T06:46:34.062Z,82.91
2023-01-17T06:47:28.980Z,83.22
2023-01-17T06:48:28.948Z,83.01
2023-01-17T06:49:35.556Z,82.81
2023-01-17T06:50:28.929Z,82.91
2023-01-17T06:51:28.969Z,82.60
2023-01-17T06:52:28.921Z,83.33
2023-01-17T06:53:28.916Z,83.33
2023-01-17T06:54:28.907Z,83.12
2023-01-17T06:55:28.964Z,83.01
2023-01-17T06:56:29.092Z,82.60
2023-01-17T06:57:29.085Z,83.01
2023-01-17T06:58:28.867Z,83.12
2023-01-17T06:59:28.857Z,82.60
2023-01-17T07:00:29.426Z,83.01
2023-01-17T07:01:28.945Z,82.70
2023-01-17T07:02:28.801Z,82.39
2023-01-17T07:03:29.797Z,82.70
2023-01-17T07:04:28.783Z,83.12
2023-01-17T07:05:28.792Z,82.91
2023-01-17T07:06:28.863Z,82.91
2023-01-17T07:07:28.768Z,82.60
2023-01-17T07:08:28.737Z,82.81
2023-01-17T07:09:35.480Z,82.70
2023-01-17T07:10:28.759Z,82.60
2023-01-17T07:11:28.730Z,83.12
2023-01-17T07:12:28.745Z,82.50
2023-01-17T07:13:29.501Z,82.18
2023-01-17T07:14:28.679Z,82.91
2023-01-17T07:15:28.663Z,82.50
2023-01-17T07:16:28.917Z,82.91
2023-01-17T07:17:28.659Z,82.81
2023-01-17T07:18:29.042Z,83.12
2023-01-17T07:19:29.544Z,82.74
2023-01-17T07:20:30.569Z,82.43
2023-01-17T07:21:28.618Z,82.64
2023-01-17T07:22:28.600Z,83.05
2023-01-17T07:23:28.803Z,82.74
2023-01-17T07:24:29.203Z,83.37
2023-01-17T07:25:28.580Z,83.37
2023-01-17T07:26:28.597Z,83.47
2023-01-17T07:27:29.231Z,82.32
2023-01-17T07:28:28.542Z,83.05
2023-01-17T07:29:28.526Z,83.47
2023-01-17T07:30:28.542Z,83.26
2023-01-17T07:31:28.592Z,83.05
2023-01-17T07:32:28.499Z,83.26
2023-01-17T07:33:28.468Z,83.05
2023-01-17T07:34:28.454Z,82.78
2023-01-17T07:35:28.472Z,82.99
2023-01-17T07:36:28.437Z,82.99
2023-01-17T07:37:28.926Z,83.51
2023-01-17T07:38:28.411Z,83.82
2023-01-17T07:39:28.402Z,84.13
2023-01-17T07:40:28.397Z,84.27
2023-01-17T07:41:28.392Z,84.17
2023-01-17T07:42:29.612Z,83.86
2023-01-17T07:43:28.369Z,84.27
2023-01-17T07:44:28.383Z,83.96
2023-01-17T07:45:28.348Z,84.38
2023-01-17T07:46:28.405Z,84.17
2023-01-17T07:47:28.347Z,83.86
2023-01-17T07:48:28.330Z,83.75
2023-01-17T07:49:35.026Z,83.96
2023-01-17T07:50:28.322Z,83.72
2023-01-17T07:51:29.036Z,83.61
2023-01-17T07:52:28.285Z,83.51
2023-01-17T07:53:28.319Z,82.99
2023-01-17T07:54:31.116Z,82.89
2023-01-17T07:55:28.243Z,83.20
2023-01-17T07:56:28.430Z,83.75
2023-01-17T07:57:28.264Z,83.96
2023-01-17T07:58:31.507Z,84.38
2023-01-17T07:59:28.194Z,84.80
2023-01-17T08:00:28.200Z,84.90
2023-01-17T08:01:28.351Z,84.90
2023-01-17T08:02:29.325Z,85.11
2023-01-17T08:03:28.228Z,85.52
2023-01-17T08:04:28.148Z,85.52
2023-01-17T08:05:28.799Z,85.73
2023-01-17T08:06:28.135Z,85.73
2023-01-17T08:07:28.111Z,85.94
2023-01-17T08:08:28.115Z,86.46
2023-01-17T08:09:28.110Z,86.63
2023-01-17T08:10:28.070Z,87.04
2023-01-17T08:11:28.063Z,86.94
2023-01-17T08:12:28.046Z,86.52
2023-01-17T08:13:29.858Z,86.32
2023-01-17T08:14:28.040Z,86.42
2023-01-17T08:15:28.547Z,86.90
2023-01-17T08:16:28.063Z,87.21
2023-01-17T08:17:27.984Z,87.27
2023-01-17T08:18:27.997Z,87.03
2023-01-17T08:19:27.996Z,86.19
2023-01-17T08:20:28.368Z,85.26
2023-01-17T08:21:27.977Z,84.33
2023-01-17T08:22:27.931Z,83.91
2023-01-17T08:23:27.931Z,83.91
2023-01-17T08:24:27.942Z,83.91
2023-01-17T08:25:27.933Z,83.60
2023-01-17T08:26:28.118Z,82.98
2023-01-17T08:27:27.911Z,83.08
2023-01-17T08:28:27.908Z,82.46
2023-01-17T08:29:34.455Z,81.90
2023-01-17T08:30:27.871Z,81.49
2023-01-17T08:31:27.883Z,81.90
2023-01-17T08:32:27.840Z,81.70
2023-01-17T08:33:27.847Z,80.76
2023-01-17T08:34:27.819Z,80.97
2023-01-17T08:35:27.855Z,81.38
2023-01-17T08:36:27.835Z,81.28
2023-01-17T08:37:28.005Z,81.24
2023-01-17T08:38:27.753Z,81.04
2023-01-17T08:39:27.757Z,81.14
2023-01-17T08:40:27.731Z,81.41
2023-01-17T08:41:27.998Z,81.10
2023-01-17T08:42:27.738Z,80.79
2023-01-17T08:43:28.570Z,80.89
2023-01-17T08:44:27.696Z,81.68
2023-01-17T08:45:27.819Z,81.79
2023-01-17T08:46:31.390Z,82.10
2023-01-17T08:47:29.325Z,81.54
2023-01-17T08:48:27.663Z,80.57
2023-01-17T08:49:28.097Z,79.30
2023-01-17T08:50:27.627Z,78.78
2023-01-17T08:51:27.650Z,79.40
2023-01-17T08:52:27.616Z,78.57
2023-01-17T08:53:27.633Z,77.29
2023-01-17T08:54:27.598Z,76.09
2023-01-17T08:55:27.605Z,74.26
2023-01-17T08:56:27.606Z,72.30
2023-01-17T08:57:27.584Z,70.58
2023-01-17T08:58:29.213Z,69.45
2023-01-17T08:59:27.610Z,69.21
2023-01-17T09:00:27.545Z,69.07
2023-01-17T09:01:27.912Z,68.80
2023-01-17T09:02:28.081Z,68.62
2023-01-17T09:03:27.520Z,69.62
2023-01-17T09:04:27.523Z,70.99
2023-01-17T09:05:27.481Z,72.26
2023-01-17T09:06:27.469Z,72.71
2023-01-17T09:07:27.466Z,73.47
2023-01-17T09:08:27.662Z,74.40
2023-01-17T09:09:27.443Z,73.57
2023-01-17T09:10:27.413Z,73.05
2023-01-17T09:11:27.401Z,73.16
2023-01-17T09:12:27.418Z,72.43
2023-01-17T09:13:27.384Z,72.50
2023-01-17T09:14:27.394Z,71.20
2023-01-17T09:15:27.387Z,68.11
2023-01-17T09:16:27.396Z,66.06
2023-01-17T09:17:27.356Z,65.45
2023-01-17T09:18:27.355Z,62.96
2023-01-17T09:19:27.316Z,62.24
2023-01-17T09:20:27.322Z,63.53
2023-01-17T09:21:27.293Z,63.93
2023-01-17T09:22:27.290Z,64.03
2023-01-17T09:23:28.325Z,63.18
2023-01-17T09:24:27.281Z,64.17
2023-01-17T09:25:27.478Z,65.43
2023-01-17T09:26:27.475Z,66.01
2023-01-17T09:27:27.242Z,68.41
2023-01-17T09:28:27.257Z,68.75
2023-01-17T09:31:25.039Z,65.74
2023-01-17T09:32:25.971Z,65.43
2023-01-17T09:33:25.917Z,65.33
2023-01-17T09:34:25.934Z,64.58
2023-01-17T09:35:25.905Z,63.59
2023-01-17T09:36:25.898Z,63.43
2023-01-17T09:37:25.861Z,61.55
2023-01-17T09:38:25.881Z,60.60
2023-01-17T09:39:25.870Z,60.16
2023-01-17T09:40:25.837Z,60.44
2023-01-17T09:41:25.859Z,59.18
2023-01-17T09:42:25.843Z,59.77
2023-01-17T09:43:25.800Z,59.09
2023-01-17T09:44:25.823Z,57.51
2023-01-17T09:45:25.795Z,57.86
2023-01-17T09:46:25.793Z,54.26
2023-01-17T09:47:25.799Z,54.03
2023-01-17T09:48:25.779Z,53.11
2023-01-17T09:49:32.281Z,53.01
2023-01-17T09:50:25.739Z,53.27
2023-01-17T09:51:25.797Z,53.29
2023-01-17T09:52:25.711Z,51.84
2023-01-17T09:53:25.717Z,49.86
2023-01-17T09:54:25.725Z,50.04
2023-01-17T09:55:25.664Z,47.98
2023-01-17T09:56:25.691Z,47.78
2023-01-17T09:57:25.653Z,49.28
2023-01-17T09:58:25.642Z,47.02
2023-01-17T09:59:32.754Z,45.72
2023-01-17T10:00:25.638Z,46.74
2023-01-17T10:01:25.790Z,47.80
2023-01-17T10:02:26.688Z,47.78
2023-01-17T10:03:25.666Z,47.96
2023-01-17T10:04:25.606Z,47.74
2023-01-17T10:05:25.553Z,45.98
2023-01-17T10:06:25.568Z,46.70
2023-01-17T10:07:25.551Z,46.17
2023-01-17T10:08:25.548Z,43.99
2023-01-17T10:09:25.535Z,47.55
2023-01-17T10:10:25.501Z,45.60
2023-01-17T10:11:25.483Z,47.99
2023-01-17T10:12:25.521Z,45.64
2023-01-17T10:13:25.470Z,45.09
2023-01-17T10:14:25.482Z,42.68
2023-01-17T10:15:25.906Z,43.37
2023-01-17T10:16:25.481Z,44.71
2023-01-17T10:17:25.640Z,43.90
2023-01-17T10:18:30.497Z,44.77
2023-01-17T10:20:36.140Z,44.60
2023-01-17T10:21:37.169Z,44.53
2023-01-17T10:22:37.163Z,45.60
2023-01-17T10:23:37.117Z,43.53
2023-01-17T10:24:37.113Z,43.43
2023-01-17T10:25:37.130Z,43.30
2023-01-17T10:26:37.078Z,42.88
2023-01-17T10:27:37.079Z,42.27
2023-01-17T10:28:37.050Z,41.72
2023-01-17T10:29:37.074Z,41.20
2023-01-17T10:30:37.070Z,42.09
2023-01-17T10:31:37.119Z,40.88
2023-01-17T10:32:37.003Z,40.43
2023-01-17T10:33:37.002Z,41.63
2023-01-17T10:34:36.998Z,41.02
2023-01-17T10:35:36.976Z,42.43
2023-01-17T10:36:36.965Z,41.68
2023-01-17T10:37:36.973Z,42.09
2023-01-17T10:38:36.952Z,41.94
2023-01-17T10:39:36.956Z,44.45
2023-01-17T10:40:36.951Z,46.89
2023-01-17T10:41:36.929Z,46.84
2023-01-17T10:42:36.925Z,45.15
2023-01-17T10:43:37.132Z,44.90
2023-01-17T10:44:36.913Z,44.58
2023-01-17T10:45:36.899Z,42.84
2023-01-17T10:46:36.915Z,41.08
2023-01-17T10:47:37.594Z,40.57
2023-01-17T10:48:36.817Z,41.06
2023-01-17T10:49:36.823Z,39.56
2023-01-17T10:50:36.805Z,40.89
2023-01-17T10:51:36.821Z,40.75
2023-01-17T10:52:36.830Z,40.11
2023-01-17T10:55:16.816Z,37.75
2023-01-17T10:55:21.712Z,37.75
2023-01-17T10:56:21.652Z,37.33
2023-01-17T10:57:21.616Z,38.15
2023-01-17T10:58:21.597Z,38.28
2023-01-17T10:59:21.604Z,39.70
2023-01-17T11:00:21.588Z,38.80
2023-01-17T11:01:21.696Z,38.68
2023-01-17T11:02:22.296Z,38.64
2023-01-17T11:03:21.564Z,38.71
2023-01-17T11:04:21.565Z,37.49
2023-01-17T11:05:21.526Z,36.98
2023-01-17T11:06:21.530Z,36.67
2023-01-17T11:07:21.530Z,35.36
2023-01-17T11:08:21.547Z,35.86
2023-01-17T11:09:21.480Z,35.75
2023-01-17T11:10:21.478Z,35.73
2023-01-17T11:11:21.484Z,35.21
2023-01-17T11:12:21.473Z,35.91
2023-01-17T11:13:21.497Z,34.51
2023-01-17T11:14:21.474Z,36.60
2023-01-17T11:15:21.435Z,35.18
2023-01-17T11:16:21.400Z,33.65
2023-01-17T11:17:21.423Z,32.97
2023-01-17T11:18:21.390Z,33.39
2023-01-17T11:19:21.394Z,34.38
2023-01-17T11:20:21.384Z,33.95
2023-01-17T11:21:21.328Z,33.64
2023-01-17T11:22:21.361Z,34.02
2023-01-17T11:23:21.338Z,32.21
2023-01-17T11:24:21.327Z,32.33
2023-01-17T11:25:21.292Z,33.23
2023-01-17T11:26:21.303Z,33.80
2023-01-17T11:27:21.292Z,34.19
2023-01-17T11:28:21.489Z,33.99
2023-01-17T11:29:22.046Z,33.99
2023-01-17T11:30:21.320Z,33.95
2023-01-17T11:31:21.340Z,34.86
2023-01-17T11:32:21.242Z,34.67
2023-01-17T11:33:21.304Z,35.16
2023-01-17T11:34:21.198Z,34.34
2023-01-17T11:35:21.231Z,34.09
2023-01-17T11:36:21.227Z,32.35
2023-01-17T11:37:21.202Z,32.75
2023-01-17T11:38:21.205Z,32.20
2023-01-17T11:39:28.662Z,32.09
2023-01-17T11:40:21.263Z,31.67
2023-01-17T11:41:21.168Z,30.95
2023-01-17T11:42:21.149Z,31.05
2023-01-17T11:43:21.121Z,31.73
2023-01-17T11:44:21.132Z,30.24
2023-01-17T11:45:21.085Z,31.47
2023-01-17T11:46:21.190Z,30.88
2023-01-17T11:48:31.735Z,31.65
2023-01-17T11:49:32.762Z,31.30
2023-01-17T11:50:32.738Z,32.78
2023-01-17T11:51:32.728Z,33.07
2023-01-17T11:52:32.691Z,32.23
2023-01-17T11:53:32.715Z,31.82
2023-01-17T11:54:32.684Z,31.37
2023-01-17T11:55:32.713Z,30.54
2023-01-17T11:56:32.675Z,30.32
2023-01-17T11:57:32.672Z,30.51
2023-01-17T11:58:32.664Z,29.10
2023-01-17T11:59:32.619Z,29.22
2023-01-17T12:00:32.620Z,30.05
2023-01-17T12:01:32.628Z,30.28
2023-01-17T12:02:32.634Z,30.78
2023-01-17T12:03:32.735Z,30.67
2023-01-17T12:04:32.608Z,30.87
2023-01-17T12:05:32.654Z,30.67
2023-01-17T12:06:32.554Z,30.26
2023-01-17T12:07:32.741Z,29.74
2023-01-17T12:08:32.542Z,30.12
2023-01-17T12:09:32.529Z,29.01
2023-01-17T12:10:32.712Z,29.79
2023-01-17T12:11:32.509Z,31.76
2023-01-17T12:12:32.485Z,30.73
2023-01-17T12:13:32.489Z,29.62
2023-01-17T12:14:32.471Z,30.63
2023-01-17T12:15:32.471Z,30.87
2023-01-17T12:16:32.454Z,32.26
2023-01-17T12:17:32.431Z,32.76
2023-01-17T12:18:32.424Z,32.73
2023-01-17T12:19:32.474Z,31.98
2023-01-17T12:20:32.423Z,31.31
2023-01-17T12:21:32.380Z,30.60
2023-01-17T12:22:32.382Z,30.40
2023-01-17T12:23:32.372Z,30.10
2023-01-17T12:24:32.399Z,29.66
2023-01-17T12:25:32.367Z,29.65
2023-01-17T12:26:32.340Z,28.36
2023-01-17T12:27:33.233Z,28.66
2023-01-17T12:28:32.339Z,29.16
2023-01-17T12:29:38.839Z,27.55
2023-01-17T12:30:32.280Z,27.85
2023-01-17T12:31:32.366Z,28.26
2023-01-17T12:32:32.280Z,28.89
2023-01-17T12:33:32.246Z,28.48
2023-01-17T12:34:32.296Z,27.82
2023-01-17T12:35:32.220Z,27.19
2023-01-17T12:36:32.199Z,26.78
2023-01-17T12:37:32.231Z,27.11
2023-01-17T12:38:33.423Z,27.03
2023-01-17T12:39:32.191Z,27.44
2023-01-17T12:40:32.180Z,28.20
2023-01-17T12:41:32.154Z,29.46
2023-01-17T12:42:32.157Z,30.90
2023-01-17T12:43:32.140Z,31.32
2023-01-17T12:44:32.130Z,32.43
2023-01-17T12:45:32.151Z,33.16
2023-01-17T12:46:32.137Z,32.84
2023-01-17T12:47:32.117Z,32.98
2023-01-17T12:48:32.092Z,32.46
2023-01-17T12:49:38.611Z,32.67
2023-01-17T12:50:32.075Z,32.89
2023-01-17T12:51:32.053Z,32.24
2023-01-17T12:52:32.281Z,31.30
2023-01-17T12:53:32.036Z,31.10
2023-01-17T12:54:32.012Z,31.22
2023-01-17T12:55:32.054Z,31.09
2023-01-17T12:56:32.040Z,30.64
2023-01-17T12:57:31.988Z,29.18
2023-01-17T12:58:31.963Z,28.75
2023-01-17T12:59:31.966Z,28.74
2023-01-17T13:00:31.973Z,28.52
2023-01-17T13:01:32.073Z,28.46
2023-01-17T13:02:32.026Z,29.41
2023-01-17T13:03:31.968Z,30.22
2023-01-17T13:04:31.900Z,30.31
2023-01-17T13:05:31.989Z,29.93
2023-01-17T13:06:32.099Z,29.99
2023-01-17T13:07:32.836Z,29.27
2023-01-17T13:08:31.866Z,28.35
2023-01-17T13:09:31.871Z,28.14
2023-01-17T13:10:32.186Z,27.59
2023-01-17T13:11:31.891Z,27.59
2023-01-17T13:12:31.827Z,27.89
2023-01-17T13:13:31.850Z,26.71
2023-01-17T13:14:31.800Z,27.23
2023-01-17T13:15:31.815Z,27.16
2023-01-17T13:16:31.867Z,27.47
2023-01-17T13:17:31.812Z,27.69
2023-01-17T13:18:31.779Z,28.53
2023-01-17T13:19:31.756Z,28.56
2023-01-17T13:20:31.765Z,28.96
2023-01-17T13:21:31.737Z,29.45
2023-01-17T13:22:31.753Z,28.72
2023-01-17T13:23:31.725Z,27.60
2023-01-17T13:24:31.717Z,27.67
2023-01-17T13:25:31.693Z,27.46
2023-01-17T13:26:31.902Z,26.53
2023-01-17T13:27:32.790Z,26.32
2023-01-17T13:28:31.931Z,26.25
2023-01-17T13:29:34.381Z,27.27
2023-01-17T13:30:31.644Z,26.70
2023-01-17T13:31:31.893Z,27.11
2023-01-17T13:32:31.671Z,27.40
2023-01-17T13:33:31.910Z,26.48
2023-01-17T13:34:31.588Z,26.82
2023-01-17T13:35:31.575Z,28.12